Forside
METAR-TAF:

METAR-TAF

Lufthavne :

Four Corners Regional Airport

Farmington, New Mexico, USA

Breddekreds: 36-44-37N, længdekreds: 108-13-45W, højde: 1677 m

Aktuelle vejr

Denne rapport blev lavet for 27 minutter siden, kl. 06:53 UTC
Vind 6 kt fra østnordøst
Temperatur -2°C
Fugtighed 54%
Tryk 1024 hPa
Sigt: 16.1 km
skyfri

METAR: KFMN 290653Z AUTO 06006KT 10SM CLR M02/M10 A3025 RMK AO2 SLP249 T10171100 401221067

Tid: 00:20 (07:20 UTC)

Vejrudsigter

Denne rapport blev lavet for 2 timer og 0 minutter siden, kl. 05:20 UTC
Foreløbig gælder fra 29 på 06 UTC til 01 på 06 UTC
Vind 6 kt fra øst
Sigt: 10 km
Brudte skyer i en højde af 18000 ft
Fra 29 på 1500 UTC
Vind 6 kt fra østsydøst
Sigt: 10 km
Spredte skyer i en højde af 15000 ft
Fra 29 på 2000 UTC
Vind 8 kt fra vest
Sigt: 10 km
Spredte skyer i en højde af 15000 ft
Fra 01 på 0100 UTC
Vind 6 kt fra nordvest
Sigt: 10 km
Spredte skyer i en højde af 15000 ft

TAF: KFMN 290520Z 2906/0106 08006KT P6SM BKN180 FM291500 12006KT P6SM SCT150 FM292000 28008KT P6SM SCT150 FM010100 31006KT P6SM SCT150

Vejrobservationer og prognoser fra mere end 4000 lufthavne (METAR og TAF).

De gule og røde prikker repræsenterer de meteorologiske stationer.

Flyt musen over at se navnet på stationen.

Så klik over at se vejr observationer og prognoser.

At skifte det kort: Klik på de grønne knapper med et sort kors for at zoome ind; på den grønne knap med en bindestreg for at zoome ud; eller på de grønne pile for tilstødende kort.


METAR-TAF: